Time;durP1;ratioP1;P1;durP2;ratioP2;P2;SDS_P1;SDS_P2;PMS_P1;PMS_P2;Temp;Humidity;BMP_temperature;BMP_pressure;BME280_temperature;BME280_humidity;BME280_pressure;Samples;Min_cycle;Max_cycle;Signal;HPM_P1;HPM_P2
2022/10/14 00:02:03;;;;;;;0.43;0.43;;;9.80;99.90;;;;;;5054283;28;20215;-66
2022/10/14 00:04:29;;;;;;;0.90;0.90;;;9.80;99.90;;;;;;5054053;28;20206;-68
2022/10/14 00:06:55;;;;;;;0.73;0.73;;;9.80;99.90;;;;;;5036245;28;20255;-67
2022/10/14 00:09:21;;;;;;;0.60;0.60;;;9.80;99.90;;;;;;5053986;28;20570;-68
2022/10/14 00:11:48;;;;;;;0.98;0.80;;;9.80;99.90;;;;;;5054198;28;20223;-66
2022/10/14 00:14:16;;;;;;;0.60;0.60;;;9.80;99.90;;;;;;5053854;28;20707;-66
2022/10/14 00:16:43;;;;;;;0.93;0.93;;;9.80;99.90;;;;;;5035985;28;20193;-66
2022/10/14 00:19:09;;;;;;;1.52;1.42;;;9.80;99.90;;;;;;5053943;28;20201;-67
2022/10/14 00:21:37;;;;;;;2.40;1.10;;;9.80;99.90;;;;;;5035865;28;20211;-65
2022/10/14 00:24:04;;;;;;;0.70;0.70;;;9.80;99.90;;;;;;5036068;28;20240;-65
2022/10/14 00:26:33;;;;;;;0.93;0.93;;;9.80;99.90;;;;;;5053636;28;20220;-67
2022/10/14 00:29:00;;;;;;;1.70;1.27;;;9.80;99.90;;;;;;5053766;28;20276;-67
2022/10/14 00:31:27;;;;;;;0.57;0.57;;;9.80;99.90;;;;;;5053666;28;20197;-67
2022/10/14 00:33:53;;;;;;;0.77;0.77;;;9.80;99.90;;;;;;5035949;28;20205;-66
2022/10/14 00:36:20;;;;;;;0.50;0.50;;;9.90;99.90;;;;;;5053509;28;20193;-67
2022/10/14 00:38:47;;;;;;;1.05;1.05;;;9.90;99.90;;;;;;5053466;28;20327;-66
2022/10/14 00:41:19;;;;;;;0.60;0.60;;;9.90;99.90;;;;;;5053655;28;20422;-66
2022/10/14 00:43:56;;;;;;;0.90;0.85;;;9.90;99.90;;;;;;5056803;28;20279;-66
2022/10/14 00:46:23;;;;;;;0.50;0.50;;;9.90;99.90;;;;;;5073182;28;20269;-67
2022/10/14 00:48:49;;;;;;;1.58;1.30;;;9.90;99.90;;;;;;5073471;28;20189;-65
2022/10/14 00:51:15;;;;;;;0.60;0.60;;;9.90;99.90;;;;;;5055418;28;20199;-66
2022/10/14 00:53:42;;;;;;;0.50;0.50;;;9.90;99.90;;;;;;5055014;28;20675;-66
2022/10/14 00:56:09;;;;;;;0.70;0.70;;;9.80;99.90;;;;;;5053346;28;20190;-67
2022/10/14 00:58:36;;;;;;;0.50;0.50;;;9.90;99.90;;;;;;5052935;28;20232;-66
2022/10/14 01:01:02;;;;;;;0.63;0.55;;;9.90;99.90;;;;;;5053320;28;20213;-70
2022/10/14 01:03:27;;;;;;;0.95;0.90;;;9.90;99.90;;;;;;5052912;28;20205;-70
2022/10/14 01:06:06;;;;;;;2.63;1.85;;;9.90;99.90;;;;;;5053187;28;20205;-70
2022/10/14 01:09:00;;;;;;;1.05;1.05;;;9.90;99.90;;;;;;5052950;28;20198;-70
2022/10/14 01:11:53;;;;;;;1.00;1.00;;;9.90;99.90;;;;;;5017776;28;20233;-69
2022/10/14 01:14:38;;;;;;;1.02;0.80;;;9.90;99.90;;;;;;5052779;28;20320;-70
2022/10/14 01:17:15;;;;;;;0.75;0.75;;;9.90;99.90;;;;;;5053060;28;20243;-70
2022/10/14 01:19:52;;;;;;;0.75;0.75;;;9.90;99.90;;;;;;5052810;28;20648;-71
2022/10/14 01:22:37;;;;;;;0.80;0.80;;;9.90;99.90;;;;;;5035002;28;20687;-70
2022/10/14 01:25:21;;;;;;;1.23;0.90;;;10.00;99.90;;;;;;5052835;28;20693;-70
2022/10/14 01:28:27;;;;;;;5.15;1.45;;;10.00;99.90;;;;;;5052894;28;20269;-71
2022/10/14 01:31:02;;;;;;;0.70;0.70;;;10.00;99.90;;;;;;5023950;28;20209;-70
2022/10/14 01:33:36;;;;;;;0.77;0.77;;;10.00;99.90;;;;;;5052660;28;20665;-71
2022/10/14 01:36:08;;;;;;;0.68;0.68;;;10.00;99.90;;;;;;5052679;28;20582;-71
2022/10/14 01:38:44;;;;;;;2.25;1.83;;;10.00;99.90;;;;;;5052363;28;20746;-70
2022/10/14 01:41:21;;;;;;;1.08;1.05;;;10.00;99.90;;;;;;5065541;28;20595;-71
2022/10/14 01:43:50;;;;;;;0.70;0.70;;;10.00;99.90;;;;;;5054802;28;20193;-71
2022/10/14 01:46:19;;;;;;;0.85;0.85;;;10.00;99.90;;;;;;5072542;28;20715;-71
2022/10/14 01:48:52;;;;;;;1.35;1.25;;;10.00;99.90;;;;;;5064348;28;20197;-71
2022/10/14 01:51:25;;;;;;;0.93;0.93;;;10.00;99.90;;;;;;5052945;28;20560;-71
2022/10/14 01:54:00;;;;;;;0.80;0.80;;;10.00;99.90;;;;;;5051734;28;20205;-71
2022/10/14 01:56:31;;;;;;;1.77;0.98;;;10.00;99.90;;;;;;5052673;28;20722;-70
2022/10/14 01:58:59;;;;;;;1.33;1.20;;;10.00;99.90;;;;;;5054884;28;20237;-70
2022/10/14 02:01:25;;;;;;;0.77;0.77;;;10.00;99.90;;;;;;5055534;28;20196;-71
2022/10/14 02:03:51;;;;;;;0.73;0.73;;;9.90;99.90;;;;;;5056861;28;20652;-71
2022/10/14 02:06:19;;;;;;;0.85;0.80;;;9.90;99.90;;;;;;5056778;28;20209;-71
2022/10/14 02:09:21;;;;;;;0.60;0.60;;;9.90;99.90;;;;;;5038455;28;20304;-70
2022/10/14 02:12:14;;;;;;;1.10;1.10;;;9.80;99.90;;;;;;5038417;28;20197;-71
2022/10/14 02:14:39;;;;;;;0.70;0.70;;;9.80;99.90;;;;;;5055352;28;20209;-70
2022/10/14 02:17:11;;;;;;;0.57;0.57;;;9.80;99.90;;;;;;5055012;28;20300;-71
2022/10/14 02:19:47;;;;;;;0.70;0.70;;;9.80;99.90;;;;;;5056099;28;20671;-71
2022/10/14 02:22:42;;;;;;;0.60;0.60;;;9.70;99.90;;;;;;5056230;28;20288;-71
2022/10/14 02:25:23;;;;;;;0.68;0.68;;;9.70;99.90;;;;;;5038161;28;20209;-71
2022/10/14 02:27:52;;;;;;;0.73;0.73;;;9.70;99.90;;;;;;5056163;28;20713;-70
2022/10/14 02:30:18;;;;;;;0.70;0.70;;;9.60;99.90;;;;;;5038052;28;20254;-70
2022/10/14 02:32:46;;;;;;;0.70;0.70;;;9.60;99.90;;;;;;5054878;28;20531;-71
2022/10/14 02:35:15;;;;;;;0.60;0.60;;;9.50;99.90;;;;;;5055978;28;20204;-70
2022/10/14 02:37:42;;;;;;;0.68;0.68;;;9.50;99.90;;;;;;5060548;28;20193;-71
2022/10/14 02:40:13;;;;;;;0.85;0.85;;;9.40;99.90;;;;;;5056033;28;20228;-71
2022/10/14 02:42:39;;;;;;;0.68;0.68;;;9.40;99.90;;;;;;5055771;28;20208;-71
2022/10/14 02:45:06;;;;;;;1.73;1.25;;;9.40;99.90;;;;;;5055628;28;20190;-70
2022/10/14 02:47:32;;;;;;;0.70;0.70;;;9.40;99.90;;;;;;5055712;28;20190;-70
2022/10/14 02:49:58;;;;;;;4.13;3.22;;;9.40;99.90;;;;;;5056073;28;20532;-71
2022/10/14 02:52:23;;;;;;;3.15;1.23;;;9.50;99.90;;;;;;5056038;28;20193;-71
2022/10/14 02:54:49;;;;;;;1.02;0.93;;;9.50;99.90;;;;;;5055120;28;20198;-71
2022/10/14 02:57:15;;;;;;;3.05;1.50;;;9.50;99.90;;;;;;5054870;28;20627;-71
2022/10/14 02:59:40;;;;;;;0.95;0.90;;;9.50;99.90;;;;;;5055309;28;20201;-71
2022/10/14 03:02:07;;;;;;;0.60;0.60;;;9.50;99.90;;;;;;5054796;28;20200;-70
2022/10/14 03:04:34;;;;;;;0.50;0.50;;;9.60;99.90;;;;;;5051262;28;20201;-71
2022/10/14 03:06:59;;;;;;;0.75;0.75;;;9.60;99.90;;;;;;5037421;28;20263;-71
2022/10/14 03:09:25;;;;;;;1.27;1.17;;;9.60;99.90;;;;;;5054479;28;20194;-70
2022/10/14 03:11:50;;;;;;;0.68;0.68;;;9.60;99.90;;;;;;5054838;28;20196;-71
2022/10/14 03:14:16;;;;;;;0.70;0.70;;;9.60;99.90;;;;;;5055090;28;20221;-71
2022/10/14 03:16:42;;;;;;;0.80;0.80;;;9.70;99.90;;;;;;5055090;28;20558;-71
2022/10/14 03:19:07;;;;;;;0.98;0.88;;;9.70;99.90;;;;;;5055172;28;20590;-71
2022/10/14 03:21:33;;;;;;;1.42;1.00;;;9.70;99.90;;;;;;5036955;28;20197;-71
2022/10/14 03:24:00;;;;;;;1.35;1.00;;;9.70;99.90;;;;;;5037233;28;20209;-71
2022/10/14 03:26:26;;;;;;;0.85;0.85;;;9.70;99.90;;;;;;5036720;28;20263;-70
2022/10/14 03:28:51;;;;;;;0.95;0.95;;;9.70;99.90;;;;;;5037143;28;20202;-71
2022/10/14 03:31:17;;;;;;;0.70;0.70;;;9.80;99.90;;;;;;5036988;28;20198;-71
2022/10/14 03:33:43;;;;;;;1.58;1.10;;;9.80;99.90;;;;;;5036800;28;20221;-70
2022/10/14 03:36:09;;;;;;;2.05;1.17;;;9.80;99.90;;;;;;5053582;28;20220;-70
2022/10/14 03:38:34;;;;;;;1.13;1.13;;;9.80;99.90;;;;;;5037290;28;20221;-70
2022/10/14 03:41:00;;;;;;;0.85;0.85;;;9.80;99.90;;;;;;5040874;28;20213;-70
2022/10/14 03:43:27;;;;;;;1.42;1.20;;;9.80;99.90;;;;;;5054578;28;20276;-71
2022/10/14 03:45:53;;;;;;;1.88;1.25;;;9.80;99.90;;;;;;5054713;28;20225;-70
2022/10/14 03:48:18;;;;;;;0.70;0.70;;;9.80;99.90;;;;;;5054436;28;20625;-70
2022/10/14 03:50:46;;;;;;;3.58;2.30;;;9.80;99.90;;;;;;5054572;28;20699;-70
2022/10/14 03:53:12;;;;;;;1.35;1.25;;;9.80;99.90;;;;;;5054613;28;20636;-71
2022/10/14 03:55:37;;;;;;;3.55;1.70;;;9.70;99.90;;;;;;5054409;28;20272;-71
2022/10/14 03:58:04;;;;;;;0.77;0.77;;;9.80;99.90;;;;;;5054442;28;20303;-68
2022/10/14 04:00:30;;;;;;;0.88;0.88;;;9.80;99.90;;;;;;5036173;28;20209;-71
2022/10/14 04:02:56;;;;;;;0.93;0.90;;;9.80;99.90;;;;;;5036515;28;20201;-71
2022/10/14 04:05:21;;;;;;;0.60;0.60;;;9.70;99.90;;;;;;5054079;28;20201;-71
2022/10/14 04:07:47;;;;;;;0.65;0.65;;;9.70;99.90;;;;;;5054330;28;20197;-71
2022/10/14 04:10:13;;;;;;;0.90;0.90;;;9.70;99.90;;;;;;5036349;28;20200;-71
2022/10/14 04:12:39;;;;;;;2.38;1.45;;;9.80;99.90;;;;;;5053863;28;20225;-71
2022/10/14 04:15:06;;;;;;;1.40;1.05;;;9.80;99.90;;;;;;5054373;28;20217;-71
2022/10/14 04:17:32;;;;;;;2.60;1.58;;;9.80;99.90;;;;;;5052630;28;20198;-71
2022/10/14 04:19:57;;;;;;;0.65;0.65;;;9.80;99.90;;;;;;5054021;28;20590;-70
2022/10/14 04:22:23;;;;;;;2.53;1.40;;;9.80;99.90;;;;;;5053489;28;20276;-71
2022/10/14 04:24:49;;;;;;;1.63;1.48;;;9.80;99.90;;;;;;5054001;28;20217;-71
2022/10/14 04:27:16;;;;;;;1.17;1.13;;;9.80;99.90;;;;;;5053776;28;20213;-70
2022/10/14 04:29:41;;;;;;;0.98;0.80;;;9.80;99.90;;;;;;5064601;28;20724;-71
2022/10/14 04:32:07;;;;;;;0.85;0.85;;;9.80;99.90;;;;;;5073796;28;20201;-70
2022/10/14 04:34:33;;;;;;;2.22;1.55;;;9.80;99.90;;;;;;5073512;28;20201;-70
2022/10/14 04:36:58;;;;;;;0.75;0.75;;;9.80;99.90;;;;;;5069223;28;20193;-70
2022/10/14 04:39:24;;;;;;;0.73;0.73;;;9.80;99.90;;;;;;5053611;28;20598;-70
2022/10/14 04:41:49;;;;;;;0.57;0.57;;;9.80;99.90;;;;;;5052758;28;20208;-70
2022/10/14 04:44:15;;;;;;;0.95;0.95;;;9.80;99.90;;;;;;5053385;28;20201;-71
2022/10/14 04:46:41;;;;;;;0.47;0.47;;;9.80;99.90;;;;;;5052093;28;20210;-70
2022/10/14 04:49:08;;;;;;;1.45;1.35;;;9.80;99.90;;;;;;5053357;28;20205;-70
2022/10/14 04:51:33;;;;;;;0.60;0.60;;;9.80;99.90;;;;;;5053277;28;20734;-70
2022/10/14 04:53:59;;;;;;;3.05;1.35;;;9.80;99.90;;;;;;5053437;28;20193;-70
2022/10/14 04:56:25;;;;;;;0.70;0.70;;;9.80;99.90;;;;;;5053046;28;20200;-70
2022/10/14 04:58:50;;;;;;;0.82;0.80;;;9.80;99.90;;;;;;5053280;28;20193;-70
2022/10/14 05:01:17;;;;;;;1.10;0.88;;;9.80;99.90;;;;;;5053171;28;20205;-68
2022/10/14 05:03:43;;;;;;;3.50;1.30;;;9.80;99.90;;;;;;5053135;28;20185;-70
2022/10/14 05:06:09;;;;;;;0.70;0.70;;;9.80;99.90;;;;;;5053180;28;20209;-68
2022/10/14 05:08:35;;;;;;;0.75;0.75;;;9.90;99.90;;;;;;5052980;28;20190;-69
2022/10/14 05:11:01;;;;;;;0.60;0.60;;;9.90;99.90;;;;;;5035434;28;20308;-68
2022/10/14 05:13:28;;;;;;;0.68;0.68;;;9.90;99.90;;;;;;5052719;28;20225;-69
2022/10/14 05:15:54;;;;;;;0.70;0.70;;;9.90;99.90;;;;;;5052814;28;20213;-70
2022/10/14 05:18:20;;;;;;;0.63;0.63;;;9.90;99.90;;;;;;5052755;28;20193;-69
2022/10/14 05:20:46;;;;;;;1.42;1.33;;;9.90;99.90;;;;;;5052988;28;20280;-72
2022/10/14 05:23:12;;;;;;;1.25;1.15;;;10.00;99.90;;;;;;5052975;28;20205;-70
2022/10/14 05:25:37;;;;;;;4.00;2.22;;;9.90;99.90;;;;;;5061052;28;20200;-71
2022/10/14 05:28:03;;;;;;;1.05;0.95;;;9.90;99.90;;;;;;5072926;28;20197;-70
2022/10/14 05:30:28;;;;;;;0.70;0.70;;;9.90;99.90;;;;;;5072474;28;20551;-70
2022/10/14 05:32:54;;;;;;;1.25;1.15;;;9.90;99.90;;;;;;5071379;28;20191;-68
2022/10/14 05:35:20;;;;;;;0.90;0.90;;;9.90;99.90;;;;;;5052612;28;20228;-70
2022/10/14 05:37:45;;;;;;;0.85;0.80;;;9.90;99.90;;;;;;5052522;28;20202;-70
2022/10/14 05:40:11;;;;;;;1.45;1.10;;;9.90;99.90;;;;;;5034852;28;20193;-71
2022/10/14 05:42:37;;;;;;;1.20;1.10;;;10.00;99.90;;;;;;5052404;28;20236;-69
2022/10/14 05:45:04;;;;;;;1.40;1.08;;;9.90;99.90;;;;;;5052579;28;20202;-70
2022/10/14 05:47:29;;;;;;;0.73;0.73;;;9.90;99.90;;;;;;5034510;28;20588;-70
2022/10/14 05:49:55;;;;;;;0.80;0.80;;;9.90;99.90;;;;;;5052614;28;20192;-70
2022/10/14 05:52:20;;;;;;;1.20;1.10;;;9.90;99.90;;;;;;5052333;28;20730;-71
2022/10/14 05:54:46;;;;;;;4.93;1.42;;;9.90;99.90;;;;;;5034712;28;20201;-70
2022/10/14 05:57:12;;;;;;;1.75;1.48;;;9.90;99.90;;;;;;5052361;28;20246;-70
2022/10/14 05:59:37;;;;;;;1.77;1.33;;;9.90;99.90;;;;;;5052379;28;20190;-71
2022/10/14 06:02:03;;;;;;;0.70;0.70;;;9.90;99.90;;;;;;5052427;28;20567;-69
2022/10/14 06:04:28;;;;;;;0.90;0.90;;;9.90;99.90;;;;;;5052368;28;20212;-70
2022/10/14 06:06:54;;;;;;;1.25;1.15;;;10.00;99.90;;;;;;5052466;28;20201;-70
2022/10/14 06:09:20;;;;;;;1.35;1.10;;;10.00;99.90;;;;;;5052335;28;20197;-70
2022/10/14 06:11:46;;;;;;;1.35;1.25;;;10.00;99.90;;;;;;5052525;28;20197;-70
2022/10/14 06:14:11;;;;;;;1.00;0.93;;;10.00;99.90;;;;;;5012644;28;20697;-70
2022/10/14 06:16:37;;;;;;;1.15;1.13;;;10.00;99.90;;;;;;5012556;28;20608;-70
2022/10/14 06:19:03;;;;;;;0.85;0.80;;;9.90;99.90;;;;;;5012715;28;20191;-70
2022/10/14 06:21:28;;;;;;;1.05;0.95;;;9.90;99.90;;;;;;5016248;28;20198;-70
2022/10/14 06:23:54;;;;;;;14.00;1.25;;;9.90;99.90;;;;;;5032435;28;20202;-71
2022/10/14 06:26:20;;;;;;;3.83;1.33;;;9.90;99.90;;;;;;5030859;28;20684;-70
2022/10/14 06:28:45;;;;;;;2.47;1.42;;;9.90;99.90;;;;;;5032243;28;20612;-70
2022/10/14 06:31:11;;;;;;;1.75;1.65;;;9.90;99.90;;;;;;5013890;28;20227;-70
2022/10/14 06:33:37;;;;;;;0.60;0.60;;;9.90;99.90;;;;;;5011697;28;20225;-71
2022/10/14 06:36:05;;;;;;;0.70;0.70;;;9.90;99.90;;;;;;5012589;28;20226;-71
2022/10/14 06:38:31;;;;;;;1.13;1.08;;;9.90;99.90;;;;;;5010743;28;20674;-70
2022/10/14 06:40:57;;;;;;;0.85;0.85;;;9.90;99.90;;;;;;5012557;28;20226;-71
2022/10/14 06:43:22;;;;;;;0.85;0.85;;;10.00;99.90;;;;;;5012380;28;20205;-71
2022/10/14 06:45:49;;;;;;;0.98;0.98;;;10.00;99.90;;;;;;5015493;28;20325;-70
2022/10/14 06:48:15;;;;;;;0.85;0.85;;;10.10;99.90;;;;;;5016051;28;20668;-71
2022/10/14 06:50:41;;;;;;;2.83;1.60;;;10.00;99.90;;;;;;5015982;28;20280;-71
2022/10/14 06:53:07;;;;;;;1.92;0.93;;;10.00;99.90;;;;;;5016002;28;20311;-71
2022/10/14 06:55:33;;;;;;;1.08;1.02;;;10.00;99.90;;;;;;5015704;28;20191;-70
2022/10/14 06:57:59;;;;;;;0.95;0.95;;;10.00;99.90;;;;;;5015859;28;20194;-71
2022/10/14 07:00:25;;;;;;;2.47;1.33;;;10.00;99.90;;;;;;5015695;28;20276;-70
2022/10/14 07:02:50;;;;;;;1.60;1.17;;;10.00;99.90;;;;;;5014548;28;20249;-70
2022/10/14 07:05:16;;;;;;;0.85;0.85;;;10.10;99.90;;;;;;5015695;28;20211;-70
2022/10/14 07:07:42;;;;;;;2.30;1.30;;;10.00;99.90;;;;;;5015567;28;20253;-70
2022/10/14 07:10:08;;;;;;;0.80;0.80;;;10.10;99.90;;;;;;5015667;28;20199;-70
2022/10/14 07:12:33;;;;;;;2.45;1.67;;;10.10;99.90;;;;;;5025658;28;20221;-71
2022/10/14 07:14:59;;;;;;;1.48;1.35;;;10.10;99.90;;;;;;5055277;28;20193;-70
2022/10/14 07:17:25;;;;;;;1.08;1.00;;;10.20;99.90;;;;;;5057592;28;21133;-70
2022/10/14 07:19:50;;;;;;;0.90;0.90;;;10.20;99.90;;;;;;5075242;28;20655;-71
2022/10/14 07:22:16;;;;;;;1.08;0.98;;;10.20;99.90;;;;;;5075091;28;20200;-71
2022/10/14 07:24:42;;;;;;;0.60;0.60;;;10.20;99.90;;;;;;5057051;28;20246;-70
2022/10/14 07:27:09;;;;;;;0.75;0.68;;;10.20;99.90;;;;;;5041504;28;20292;-68
2022/10/14 07:29:35;;;;;;;0.88;0.88;;;10.20;99.90;;;;;;5036892;28;20202;-68
2022/10/14 07:32:01;;;;;;;0.60;0.60;;;10.20;99.90;;;;;;5054916;28;20248;-70
2022/10/14 07:34:27;;;;;;;1.30;1.20;;;10.40;99.90;;;;;;5054574;28;20620;-70
2022/10/14 07:36:53;;;;;;;1.95;1.65;;;10.60;99.90;;;;;;5053494;28;20197;-71
2022/10/14 07:39:19;;;;;;;1.27;1.17;;;10.70;99.90;;;;;;5055090;28;20271;-73
2022/10/14 07:41:45;;;;;;;1.27;0.98;;;10.60;99.90;;;;;;5036930;28;20276;-71
2022/10/14 07:44:13;;;;;;;0.80;0.80;;;10.70;99.90;;;;;;5054807;28;20244;-69
2022/10/14 07:46:41;;;;;;;0.88;0.88;;;10.90;99.90;;;;;;5054487;28;20222;-71
2022/10/14 07:49:13;;;;;;;1.85;1.30;;;11.10;99.90;;;;;;5054678;28;20193;-70
2022/10/14 07:51:39;;;;;;;1.17;1.08;;;11.20;99.90;;;;;;5054404;28;20675;-70
2022/10/14 07:54:10;;;;;;;0.95;0.95;;;11.20;99.90;;;;;;5054575;28;20620;-69
2022/10/14 07:56:38;;;;;;;4.28;0.90;;;11.20;99.90;;;;;;5053622;28;20227;-69
2022/10/14 07:59:04;;;;;;;2.10;1.08;;;11.40;99.90;;;;;;5054476;28;20197;-69
2022/10/14 08:01:29;;;;;;;1.13;1.10;;;11.60;99.90;;;;;;5054263;28;20593;-70
2022/10/14 08:03:55;;;;;;;1.63;1.27;;;12.00;99.90;;;;;;5054469;28;20204;-71
2022/10/14 08:06:21;;;;;;;0.90;0.90;;;12.40;99.90;;;;;;5054135;28;20208;-71
2022/10/14 08:08:47;;;;;;;0.90;0.90;;;12.70;99.90;;;;;;5036564;28;20296;-72
2022/10/14 08:11:25;;;;;;;2.95;1.48;;;12.90;99.90;;;;;;5054223;28;20190;-71
2022/10/14 08:13:51;;;;;;;0.88;0.75;;;12.80;99.90;;;;;;5058233;28;20212;-72
2022/10/14 08:16:20;;;;;;;0.82;0.82;;;12.50;99.90;;;;;;5074115;28;20206;-73
2022/10/14 08:18:47;;;;;;;1.13;0.98;;;12.20;99.90;;;;;;5056191;28;20204;-72
2022/10/14 08:21:13;;;;;;;0.90;0.90;;;11.80;99.90;;;;;;5074006;28;20566;-72
2022/10/14 08:23:39;;;;;;;0.65;0.65;;;11.70;99.90;;;;;;5056090;28;20300;-71
2022/10/14 08:26:14;;;;;;;2.38;1.30;;;11.70;99.90;;;;;;5052659;28;20613;-70
2022/10/14 08:28:40;;;;;;;0.85;0.85;;;11.80;99.90;;;;;;5053715;28;20185;-71
2022/10/14 08:31:05;;;;;;;1.50;1.40;;;11.80;99.90;;;;;;5053574;28;20284;-71
2022/10/14 08:33:31;;;;;;;0.60;0.60;;;11.70;99.90;;;;;;5035794;28;20292;-71
2022/10/14 08:35:57;;;;;;;0.68;0.68;;;11.80;99.90;;;;;;5053793;28;20255;-74
2022/10/14 08:38:24;;;;;;;0.50;0.50;;;11.90;99.90;;;;;;5053288;28;20198;-72
2022/10/14 08:41:01;;;;;;;0.70;0.70;;;11.80;99.90;;;;;;5035868;28;20193;-72
2022/10/14 08:43:35;;;;;;;0.85;0.75;;;12.00;99.90;;;;;;5053608;28;20199;-74
2022/10/14 08:46:16;;;;;;;0.60;0.60;;;12.00;99.90;;;;;;5053531;28;20209;-73
2022/10/14 08:48:43;;;;;;;0.63;0.63;;;12.50;99.90;;;;;;5052083;28;20271;-74
2022/10/14 08:51:16;;;;;;;0.60;0.60;;;12.60;99.90;;;;;;5053543;28;20680;-73
2022/10/14 08:53:50;;;;;;;0.55;0.55;;;12.50;99.90;;;;;;5035509;28;20536;-75
2022/10/14 08:56:18;;;;;;;1.05;1.02;;;12.40;99.90;;;;;;5053315;28;20193;-74
2022/10/14 08:58:49;;;;;;;0.77;0.77;;;12.60;99.90;;;;;;5053220;28;20197;-73
2022/10/14 09:01:15;;;;;;;0.60;0.60;;;13.10;99.90;;;;;;5035345;28;20243;-73
2022/10/14 09:03:41;;;;;;;0.50;0.50;;;13.50;99.90;;;;;;5035250;28;20204;-73
2022/10/14 09:06:25;;;;;;;0.65;0.57;;;14.00;99.90;;;;;;5053021;28;20668;-73
2022/10/14 09:08:57;;;;;;;1.60;1.05;;;14.40;99.90;;;;;;5052223;28;20185;-73
2022/10/14 09:11:24;;;;;;;0.40;0.40;;;14.50;99.90;;;;;;5067455;28;20200;-72
2022/10/14 09:13:56;;;;;;;0.82;0.82;;;14.40;99.90;;;;;;5072914;28;20220;-74
2022/10/14 09:16:26;;;;;;;0.50;0.50;;;14.00;99.90;;;;;;5054719;28;20219;-73
2022/10/14 09:19:01;;;;;;;0.55;0.52;;;14.30;99.90;;;;;;5051545;28;20664;-72
2022/10/14 09:21:48;;;;;;;1.15;1.05;;;14.40;99.90;;;;;;5052755;28;20246;-72
2022/10/14 09:24:34;;;;;;;0.40;0.40;;;14.50;99.90;;;;;;5051582;28;20589;-72
2022/10/14 09:27:20;;;;;;;0.40;0.40;;;14.30;99.90;;;;;;5052658;28;20217;-73
2022/10/14 09:29:46;;;;;;;0.73;0.55;;;14.30;99.90;;;;;;5034814;28;20201;-71
2022/10/14 09:32:26;;;;;;;0.95;0.50;;;14.30;99.90;;;;;;5052939;28;20204;-72
2022/10/14 09:34:52;;;;;;;0.40;0.40;;;14.00;99.90;;;;;;5052706;28;20221;-71
2022/10/14 09:37:26;;;;;;;0.40;0.40;;;13.60;99.90;;;;;;5052380;28;20244;-72
2022/10/14 09:40:13;;;;;;;0.60;0.60;;;13.50;99.90;;;;;;5052753;28;20296;-73
2022/10/14 09:43:03;;;;;;;0.50;0.50;;;12.90;99.90;;;;;;5004254;28;20213;-71
2022/10/14 09:45:47;;;;;;;0.75;0.75;;;12.40;99.90;;;;;;5050979;28;20201;-73
2022/10/14 09:48:18;;;;;;;0.60;0.60;;;12.10;99.90;;;;;;5052594;28;20189;-73
2022/10/14 09:50:50;;;;;;;0.63;0.63;;;12.10;99.90;;;;;;5052548;28;20210;-74
2022/10/14 09:53:30;;;;;;;0.60;0.60;;;12.50;99.90;;;;;;5052598;28;20193;-73
2022/10/14 09:55:59;;;;;;;0.60;0.60;;;13.10;99.90;;;;;;5052547;28;20189;-74
2022/10/14 09:58:46;;;;;;;0.40;0.40;;;13.70;99.90;;;;;;5052420;28;20726;-73
2022/10/14 10:01:18;;;;;;;1.02;1.02;;;13.90;99.90;;;;;;5039311;28;20214;-73
2022/10/14 10:03:44;;;;;;;0.40;0.40;;;14.10;99.90;;;;;;5052407;28;20601;-73
2022/10/14 10:06:19;;;;;;;0.50;0.50;;;14.30;99.90;;;;;;5054958;28;20834;-76
2022/10/14 10:08:56;;;;;;;0.40;0.40;;;14.10;99.90;;;;;;5072537;28;20211;-73
2022/10/14 10:11:38;;;;;;;0.55;0.55;;;13.70;99.90;;;;;;5072182;28;20197;-72
2022/10/14 10:14:32;;;;;;;0.60;0.60;;;13.60;99.90;;;;;;5071769;28;20636;-72
2022/10/14 10:17:06;;;;;;;0.77;0.77;;;14.00;99.90;;;;;;5050719;28;20252;-70
2022/10/14 10:19:37;;;;;;;0.77;0.77;;;14.20;99.90;;;;;;5053391;28;20189;-72
2022/10/14 10:22:26;;;;;;;0.70;0.70;;;14.60;99.90;;;;;;5056204;28;20235;-72
2022/10/14 10:25:12;;;;;;;0.43;0.43;;;14.70;99.90;;;;;;5056255;28;20193;-72
2022/10/14 10:27:46;;;;;;;0.40;0.40;;;15.00;99.90;;;;;;5027885;28;20225;-72
2022/10/14 10:30:22;;;;;;;0.45;0.45;;;14.80;99.90;;;;;;5056135;28;20267;-76
2022/10/14 10:33:24;;;;;;;0.50;0.50;;;14.00;99.90;;;;;;5056483;28;20193;-72
2022/10/14 10:36:07;;;;;;;0.40;0.40;;;13.60;99.90;;;;;;5056040;28;20653;-72
2022/10/14 10:39:08;;;;;;;0.40;0.40;;;13.20;99.90;;;;;;5055586;28;20242;-72
2022/10/14 10:41:53;;;;;;;0.55;0.55;;;13.20;99.90;;;;;;4994173;28;20290;-72
2022/10/14 10:44:51;;;;;;;0.45;0.45;;;13.10;99.90;;;;;;5051063;28;20205;-72
2022/10/14 10:47:17;;;;;;;0.40;0.40;;;13.20;99.90;;;;;;5033971;28;20235;-72
2022/10/14 10:49:58;;;;;;;0.45;0.45;;;13.50;99.90;;;;;;5055767;28;20272;-72
2022/10/14 10:52:42;;;;;;;0.52;0.52;;;14.10;99.90;;;;;;5055588;28;20546;-72
2022/10/14 10:55:29;;;;;;;0.60;0.60;;;14.40;99.90;;;;;;5054336;28;20660;-71
2022/10/14 10:58:13;;;;;;;0.50;0.50;;;14.70;99.90;;;;;;5055580;28;20194;-72
2022/10/14 11:01:00;;;;;;;0.68;0.68;;;15.00;99.90;;;;;;5055560;28;20224;-70
2022/10/14 11:04:03;;;;;;;0.32;0.32;;;15.30;99.90;;;;;;5018826;28;20205;-71
2022/10/14 11:12:59;;;;;;;0.40;0.40;;;15.70;99.90;;;;;;5057693;28;20602;-72
2022/10/14 11:15:45;;;;;;;0.40;0.40;;;15.80;99.90;;;;;;5013176;28;20368;-72
2022/10/14 11:18:26;;;;;;;0.50;0.50;;;15.80;99.90;;;;;;5053239;28;20213;-72
2022/10/14 11:21:03;;;;;;;0.50;0.50;;;15.50;99.90;;;;;;5055263;28;20193;-72
2022/10/14 11:23:58;;;;;;;0.30;0.30;;;15.70;99.90;;;;;;5035076;28;20186;-73
2022/10/14 11:26:50;;;;;;;0.40;0.40;;;15.90;99.90;;;;;;5034928;28;20719;-72
2022/10/14 11:30:07;;;;;;;0.40;0.40;;;16.00;99.90;;;;;;5034969;28;20182;-72
2022/10/14 11:32:44;;;;;;;0.60;0.60;;;16.00;99.90;;;;;;4972928;28;20216;-72
2022/10/14 11:35:21;;;;;;;0.30;0.30;;;15.50;99.90;;;;;;4957930;28;20276;-72
2022/10/14 11:38:14;;;;;;;0.50;0.50;;;15.40;99.90;;;;;;5022005;28;20201;-73
2022/10/14 11:40:57;;;;;;;0.40;0.40;;;15.00;99.90;;;;;;5054770;28;20216;-72
2022/10/14 11:43:54;;;;;;;0.50;0.50;;;14.40;99.90;;;;;;5054601;28;20224;-72
2022/10/14 11:46:24;;;;;;;0.80;0.80;;;13.90;99.90;;;;;;5036443;28;20213;-72
2022/10/14 11:48:59;;;;;;;0.40;0.40;;;13.50;99.90;;;;;;5036876;28;20201;-69
2022/10/14 11:52:06;;;;;;;1.15;0.70;;;13.30;99.90;;;;;;5054537;28;20185;-68
2022/10/14 11:54:46;;;;;;;0.50;0.50;;;13.10;99.90;;;;;;5053745;28;20284;-69
2022/10/14 11:57:28;;;;;;;1.25;0.65;;;12.90;99.90;;;;;;5035566;28;20413;-69
2022/10/14 12:00:03;;;;;;;3.33;0.45;;;12.80;99.90;;;;;;5067113;28;20573;-71
2022/10/14 12:02:34;;;;;;;0.50;0.50;;;12.80;99.90;;;;;;5056179;28;20287;-70
2022/10/14 12:05:13;;;;;;;0.40;0.40;;;12.80;99.90;;;;;;5074492;28;20568;-70
2022/10/14 12:08:18;;;;;;;0.40;0.40;;;12.70;99.90;;;;;;5064678;28;20213;-70
2022/10/14 12:11:03;;;;;;;0.68;0.60;;;12.60;99.90;;;;;;5053083;28;20298;-70
2022/10/14 12:13:37;;;;;;;0.50;0.50;;;12.80;99.90;;;;;;5053973;28;20618;-70
2022/10/14 12:16:07;;;;;;;0.40;0.40;;;12.70;99.90;;;;;;5054063;28;20205;-69
2022/10/14 12:18:34;;;;;;;0.70;0.70;;;12.70;99.90;;;;;;5053980;28;20189;-70
2022/10/14 12:21:12;;;;;;;0.40;0.40;;;12.50;99.90;;;;;;5054075;28;20702;-69
2022/10/14 12:23:47;;;;;;;0.40;0.40;;;12.50;99.90;;;;;;5053941;28;20664;-70
2022/10/14 12:26:19;;;;;;;0.40;0.40;;;12.40;99.90;;;;;;5054007;28;20259;-68
2022/10/14 12:28:46;;;;;;;0.77;0.60;;;12.40;99.90;;;;;;5053940;28;20259;-70
2022/10/14 12:31:27;;;;;;;0.50;0.50;;;12.30;99.90;;;;;;5053848;28;20193;-69
2022/10/14 12:34:13;;;;;;;0.50;0.50;;;12.30;99.90;;;;;;5053723;28;20683;-71
2022/10/14 12:36:49;;;;;;;0.60;0.60;;;12.20;99.90;;;;;;5053320;28;20229;-71
2022/10/14 12:39:17;;;;;;;0.63;0.63;;;12.30;99.90;;;;;;5053699;28;20664;-70
2022/10/14 12:42:09;;;;;;;0.50;0.50;;;12.40;99.90;;;;;;5053514;28;20601;-72
2022/10/14 12:44:56;;;;;;;0.50;0.50;;;12.40;99.90;;;;;;5053425;28;20659;-70
2022/10/14 12:47:33;;;;;;;0.47;0.47;;;12.40;99.90;;;;;;5053283;28;20688;-70
2022/10/14 12:50:02;;;;;;;0.50;0.50;;;12.50;99.90;;;;;;5053519;28;20576;-71
2022/10/14 12:52:31;;;;;;;0.40;0.40;;;12.40;99.90;;;;;;5053294;28;20277;-70
2022/10/14 12:55:01;;;;;;;0.80;0.80;;;12.40;99.90;;;;;;5054965;28;20239;-70
2022/10/14 12:57:30;;;;;;;1.15;1.05;;;12.30;99.90;;;;;;5073194;28;20205;-70
2022/10/14 13:00:26;;;;;;;0.60;0.60;;;12.30;99.90;;;;;;5074985;28;20196;-71
2022/10/14 13:02:59;;;;;;;0.57;0.57;;;12.30;99.90;;;;;;5071939;28;20556;-70
2022/10/14 13:05:34;;;;;;;0.50;0.50;;;12.30;99.90;;;;;;5053045;28;20193;-69
2022/10/14 13:08:14;;;;;;;0.60;0.60;;;12.20;99.90;;;;;;5053145;28;20203;-71
2022/10/14 13:10:58;;;;;;;0.50;0.50;;;12.30;99.90;;;;;;5051397;28;20204;-70
2022/10/14 13:16:19;;;;;;;0.50;0.50;;;12.30;99.90;;;;;;5053049;28;20666;-70
2022/10/14 13:18:45;;;;;;;0.50;0.50;;;12.40;99.90;;;;;;5051743;28;20289;-70
2022/10/14 13:21:35;;;;;;;0.40;0.40;;;12.50;99.90;;;;;;5053014;28;20234;-70
2022/10/14 13:24:14;;;;;;;0.40;0.40;;;12.60;99.90;;;;;;5052938;28;20657;-71